KMKG

Muskegon County Airport

Muskegon, Michigan, USA
KMKG 201725Z 2018/2118 29009KT P6SM FEW250 FM210000 VRB03KT P6SM BKN200 FM211600 24008KT P6SM BKN150
Issued Valid From Valid To
Apr-20 @ 17:25 UTC
(an hour ago)
Apr-20 @ 18:00 UTC
(39 minutes ago)
Apr-21 @ 18:00 UTC
(in 23 hours)
Apr-20 @ 18:00 to Apr-21 @ 00:00
KMKG 201725Z 2018/2118 29009KT P6SM FEW250
Wind Visibility Clouds
290° at 9 knots Greater than 6 miles
  • Few at 25,000' AGL
From Apr-21 @ 00:00 to Apr-21 @ 16:00
FM210000 VRB03KT P6SM BKN200
Wind Visibility Clouds
Variable at 3 knots Greater than 6 miles
  • Broken at 20,000' AGL
From Apr-21 @ 16:00 to Apr-21 @ 18:00
FM211600 24008KT P6SM BKN150
Wind Visibility Clouds
240° at 8 knots Greater than 6 miles
  • Broken at 15,000' AGL
KMKG 201725Z 2018/2118 29009KT P6SM FEW250 FM210000 VRB03KT P6SM BKN200 FM211600 24008KT P6SM BKN150
Issued Apr-20 @ 17:25 UTC
(an hour ago)
Valid From Apr-20 @ 18:00 UTC
(39 minutes ago)
Valid To Apr-21 @ 18:00 UTC
(in 23 hours)
Apr-20 @ 18:00 - Apr-21 @ 00:00
Wind Visibility
290° at 9 knots Greater than 6 miles
Clouds
  • Few at 25,000' AGL
From Apr-21 @ 00:00 - Apr-21 @ 16:00
Wind Visibility
Variable at 3 knots Greater than 6 miles
Clouds
  • Broken at 20,000' AGL
From Apr-21 @ 16:00 - Apr-21 @ 18:00
Wind Visibility
240° at 8 knots Greater than 6 miles
Clouds
  • Broken at 15,000' AGL